createdAt,value
2023-03-10T00:00:01.725Z,12.00
2023-03-10T00:02:32.877Z,12.00
2023-03-10T00:05:00.822Z,12.10
2023-03-10T00:07:28.821Z,12.10
2023-03-10T00:09:58.034Z,12.10
2023-03-10T00:12:27.842Z,12.10
2023-03-10T00:14:56.307Z,12.10
2023-03-10T00:17:24.586Z,12.10
2023-03-10T00:19:52.459Z,12.10
2023-03-10T00:22:20.318Z,12.10
2023-03-10T00:24:48.363Z,12.10
2023-03-10T00:27:17.621Z,12.10
2023-03-10T00:29:45.583Z,12.10
2023-03-10T00:32:13.542Z,12.10
2023-03-10T00:34:41.658Z,12.10
2023-03-10T00:37:10.108Z,12.10
2023-03-10T00:39:38.056Z,12.10
2023-03-10T00:42:06.422Z,12.10
2023-03-10T00:44:35.660Z,12.10
2023-03-10T00:47:03.734Z,12.10
2023-03-10T00:49:31.768Z,12.10
2023-03-10T00:51:59.643Z,12.10
2023-03-10T00:54:27.538Z,12.10
2023-03-10T00:56:55.710Z,12.10
2023-03-10T00:59:23.631Z,12.10
2023-03-10T01:01:52.911Z,12.10
2023-03-10T01:04:20.922Z,12.10
2023-03-10T01:06:49.067Z,12.00
2023-03-10T01:09:17.893Z,12.10
2023-03-10T01:11:45.892Z,12.10
2023-03-10T01:14:16.362Z,12.00
2023-03-10T01:16:44.859Z,12.10
2023-03-10T01:19:14.139Z,12.00
2023-03-10T01:21:42.025Z,12.00
2023-03-10T01:24:15.952Z,12.00
2023-03-10T01:26:44.069Z,12.00
2023-03-10T01:29:11.992Z,12.00
2023-03-10T01:31:41.840Z,12.00
2023-03-10T01:34:09.982Z,12.00
2023-03-10T01:36:41.747Z,11.90
2023-03-10T01:39:09.812Z,11.90
2023-03-10T01:41:40.203Z,11.80
2023-03-10T01:44:15.490Z,11.80
2023-03-10T01:46:51.145Z,11.70
2023-03-10T01:49:37.161Z,11.70
2023-03-10T01:52:11.233Z,11.60
2023-03-10T01:54:49.775Z,11.60
2023-03-10T01:57:21.492Z,11.60
2023-03-10T01:59:51.757Z,11.60
2023-03-10T02:02:20.276Z,11.50
2023-03-10T02:04:49.962Z,11.50
2023-03-10T02:07:22.311Z,11.50
2023-03-10T02:09:52.203Z,11.50
2023-03-10T02:12:21.981Z,11.60
2023-03-10T02:14:52.219Z,11.60
2023-03-10T02:17:23.884Z,11.70
2023-03-10T02:20:12.009Z,11.70
2023-03-10T02:22:41.690Z,11.80
2023-03-10T02:25:22.465Z,11.80
2023-03-10T02:27:51.987Z,11.90
2023-03-10T02:30:23.668Z,11.90
2023-03-10T02:32:55.680Z,11.90
2023-03-10T02:35:23.666Z,12.00
2023-03-10T02:37:51.727Z,12.00
2023-03-10T02:40:31.899Z,12.00
2023-03-10T02:43:03.536Z,12.00
2023-03-10T02:45:37.464Z,12.00
2023-03-10T02:48:05.963Z,12.00
2023-03-10T02:50:38.437Z,12.00
2023-03-10T02:53:08.949Z,11.90
2023-03-10T02:55:36.941Z,11.90
2023-03-10T02:58:06.537Z,11.90
2023-03-10T03:00:38.164Z,11.90
2023-03-10T03:03:06.407Z,11.90
2023-03-10T03:05:35.016Z,11.80
2023-03-10T03:08:02.893Z,11.80
2023-03-10T03:10:30.958Z,11.80
2023-03-10T03:12:58.937Z,11.70
2023-03-10T03:15:28.592Z,11.80
2023-03-10T03:17:58.574Z,11.70
2023-03-10T03:20:26.670Z,11.70
2023-03-10T03:22:54.534Z,11.70
2023-03-10T03:25:23.715Z,11.70
2023-03-10T03:27:51.745Z,11.60
2023-03-10T03:30:22.518Z,11.60
2023-03-10T03:32:52.270Z,11.60
2023-03-10T03:35:24.036Z,11.60
2023-03-10T03:37:52.389Z,11.60
2023-03-10T03:40:21.229Z,11.50
2023-03-10T03:42:50.903Z,11.50
2023-03-10T03:45:20.892Z,11.50
2023-03-10T03:47:49.157Z,11.50
2023-03-10T03:50:20.126Z,11.50
2023-03-10T03:52:48.527Z,11.50
2023-03-10T03:55:18.716Z,11.50
2023-03-10T03:57:47.099Z,11.40
2023-03-10T04:00:18.801Z,11.40
2023-03-10T04:02:47.351Z,11.40
2023-03-10T04:05:15.767Z,11.40
2023-03-10T04:07:46.094Z,11.40
2023-03-10T04:10:16.052Z,11.40
2023-03-10T04:12:43.914Z,11.40
2023-03-10T04:15:12.667Z,11.30
2023-03-10T04:17:40.616Z,11.40
2023-03-10T04:20:11.732Z,11.30
2023-03-10T04:22:39.785Z,11.30
2023-03-10T04:25:10.272Z,11.40
2023-03-10T04:27:38.217Z,11.30
2023-03-10T04:30:07.280Z,11.30
2023-03-10T04:32:35.193Z,11.30
2023-03-10T04:35:03.097Z,11.30
2023-03-10T04:37:30.925Z,11.30
2023-03-10T04:39:58.798Z,11.30
2023-03-10T04:42:28.169Z,11.30
2023-03-10T04:44:56.108Z,11.30
2023-03-10T04:47:23.965Z,11.30
2023-03-10T04:49:51.991Z,11.20
2023-03-10T04:52:19.871Z,11.20
2023-03-10T04:54:47.769Z,11.20
2023-03-10T04:57:16.166Z,11.20
2023-03-10T04:59:45.449Z,11.20
2023-03-10T05:02:13.435Z,11.20
2023-03-10T05:04:41.469Z,11.20
2023-03-10T05:07:09.670Z,11.20
2023-03-10T05:09:38.325Z,11.30
2023-03-10T05:12:07.069Z,11.30
2023-03-10T05:14:34.984Z,11.30
2023-03-10T05:17:04.657Z,11.30
2023-03-10T05:19:34.669Z,11.30
2023-03-10T05:22:02.994Z,11.40
2023-03-10T05:24:31.192Z,11.40
2023-03-10T05:26:59.722Z,11.30
2023-03-10T05:29:27.598Z,11.40
2023-03-10T05:31:55.495Z,11.30
2023-03-10T05:34:26.795Z,11.30
2023-03-10T05:36:54.838Z,11.20
2023-03-10T05:39:22.830Z,11.20
2023-03-10T05:41:50.837Z,11.20
2023-03-10T05:44:18.697Z,11.20
2023-03-10T05:46:46.704Z,11.10
2023-03-10T05:49:14.634Z,11.10
2023-03-10T05:51:44.038Z,11.10
2023-03-10T05:54:11.915Z,11.10
2023-03-10T05:56:39.986Z,11.20
2023-03-10T05:59:07.980Z,11.20
2023-03-10T06:01:36.413Z,11.20
2023-03-10T06:04:04.538Z,11.20
2023-03-10T06:06:32.519Z,11.30
2023-03-10T06:09:02.167Z,11.30
2023-03-10T06:11:30.115Z,11.30
2023-03-10T06:13:58.025Z,11.40
2023-03-10T06:16:26.288Z,11.40
2023-03-10T06:18:55.710Z,11.40
2023-03-10T06:21:23.957Z,11.40
2023-03-10T06:23:52.259Z,11.40
2023-03-10T06:26:22.773Z,11.50
2023-03-10T06:28:50.759Z,11.40
2023-03-10T06:31:21.504Z,11.40
2023-03-10T06:33:49.716Z,11.40
2023-03-10T06:36:18.927Z,11.40
2023-03-10T06:38:46.996Z,11.40
2023-03-10T06:41:15.041Z,11.40
2023-03-10T06:43:44.674Z,11.40
2023-03-10T06:46:13.768Z,11.40
2023-03-10T06:48:42.939Z,11.40
2023-03-10T06:51:13.889Z,11.40
2023-03-10T06:53:41.961Z,11.40
2023-03-10T06:56:12.979Z,11.50
2023-03-10T06:58:41.625Z,11.50
2023-03-10T07:01:20.901Z,11.50
2023-03-10T07:03:48.966Z,11.60
2023-03-10T07:06:16.852Z,11.60
2023-03-10T07:08:44.741Z,11.70
2023-03-10T07:11:13.007Z,11.80
2023-03-10T07:13:40.904Z,11.80
2023-03-10T07:16:10.419Z,11.90
2023-03-10T07:18:38.309Z,12.00
2023-03-10T07:21:09.496Z,12.00
2023-03-10T07:23:37.692Z,12.10
2023-03-10T07:26:08.537Z,12.10
2023-03-10T07:28:37.505Z,12.20
2023-03-10T07:31:06.624Z,12.20
2023-03-10T07:33:36.279Z,12.30
2023-03-10T07:36:06.465Z,12.30
2023-03-10T07:38:34.512Z,12.30
2023-03-10T07:41:02.363Z,12.30
2023-03-10T07:43:30.916Z,12.30
2023-03-10T07:45:59.218Z,12.30
2023-03-10T07:48:27.219Z,12.30
2023-03-10T07:51:00.556Z,12.30
2023-03-10T07:53:29.144Z,12.30
2023-03-10T07:55:57.551Z,12.30
2023-03-10T07:58:25.990Z,12.40
2023-03-10T08:00:57.095Z,12.40
2023-03-10T08:03:26.532Z,12.40
2023-03-10T08:05:55.063Z,12.40
2023-03-10T08:08:24.367Z,12.40
2023-03-10T08:11:00.429Z,12.50
2023-03-10T08:13:28.521Z,12.40
2023-03-10T08:15:56.613Z,12.50
2023-03-10T08:18:26.089Z,12.50
2023-03-10T08:20:54.163Z,12.50
2023-03-10T08:23:22.139Z,12.60
2023-03-10T08:25:51.680Z,12.60
2023-03-10T08:28:19.632Z,12.50
2023-03-10T08:31:03.131Z,12.50
2023-03-10T08:33:32.488Z,12.40
2023-03-10T08:36:08.918Z,12.40
2023-03-10T08:38:37.284Z,12.30
2023-03-10T08:41:16.132Z,12.30
2023-03-10T08:43:46.167Z,12.10
2023-03-10T08:46:15.952Z,11.90
2023-03-10T08:48:44.158Z,11.80
2023-03-10T08:51:15.583Z,11.70
2023-03-10T08:53:46.586Z,11.60
2023-03-10T08:56:17.409Z,11.50
2023-03-10T08:58:45.803Z,11.40
2023-03-10T09:01:15.268Z,11.40
2023-03-10T09:03:45.128Z,11.30
2023-03-10T09:06:14.677Z,11.30
2023-03-10T09:08:42.729Z,11.20
2023-03-10T09:11:15.154Z,11.10
2023-03-10T09:13:44.491Z,11.10
2023-03-10T09:16:13.740Z,11.10
2023-03-10T09:18:41.857Z,11.10
2023-03-10T09:21:12.839Z,11.20
2023-03-10T09:23:42.864Z,11.30
2023-03-10T09:26:11.347Z,11.60
2023-03-10T09:28:39.419Z,11.90
2023-03-10T09:31:09.722Z,12.30
2023-03-10T09:33:38.347Z,12.70
2023-03-10T09:36:07.888Z,13.00
2023-03-10T09:38:36.692Z,13.20
2023-03-10T09:41:18.869Z,13.40
2023-03-10T09:43:55.371Z,13.50
2023-03-10T09:46:31.046Z,13.60
2023-03-10T09:49:04.133Z,13.80
2023-03-10T09:51:32.093Z,13.90
2023-03-10T09:54:12.423Z,14.00
2023-03-10T09:56:40.368Z,14.20
2023-03-10T09:59:12.715Z,14.30
2023-03-10T10:01:45.847Z,14.40
2023-03-10T10:04:18.224Z,14.60
2023-03-10T10:06:48.376Z,15.00
2023-03-10T10:09:24.837Z,15.40
2023-03-10T10:11:52.773Z,15.60
2023-03-10T10:14:29.605Z,15.80
2023-03-10T10:17:09.881Z,15.70
2023-03-10T10:19:39.836Z,15.40
2023-03-10T10:22:16.270Z,15.10
2023-03-10T10:24:59.764Z,15.30
2023-03-10T10:27:27.616Z,16.20
2023-03-10T10:29:55.599Z,16.70
2023-03-10T10:32:24.949Z,16.70
2023-03-10T10:34:52.901Z,16.30
2023-03-10T10:37:29.486Z,15.60
2023-03-10T10:39:59.325Z,15.20
2023-03-10T10:42:28.801Z,14.80
2023-03-10T10:44:58.060Z,14.50
2023-03-10T10:47:30.143Z,14.30
2023-03-10T10:50:17.444Z,14.20
2023-03-10T10:52:48.870Z,14.10
2023-03-10T10:55:29.282Z,14.00
2023-03-10T10:58:01.578Z,14.00
2023-03-10T11:00:32.465Z,13.90
2023-03-10T11:03:02.474Z,13.90
2023-03-10T11:05:36.044Z,13.90
2023-03-10T11:08:19.264Z,13.80
2023-03-10T11:10:55.916Z,13.70
2023-03-10T11:13:30.364Z,13.70
2023-03-10T11:16:06.098Z,13.70
2023-03-10T11:18:39.742Z,13.70
2023-03-10T11:21:14.777Z,13.60
2023-03-10T11:23:50.924Z,13.60
2023-03-10T11:26:35.511Z,13.70
2023-03-10T11:29:13.711Z,13.90
2023-03-10T11:31:47.890Z,14.00
2023-03-10T11:34:21.755Z,14.00
2023-03-10T11:36:58.599Z,14.30
2023-03-10T11:39:36.915Z,14.40
2023-03-10T11:42:13.139Z,14.30
2023-03-10T11:44:47.754Z,14.20
2023-03-10T11:47:25.250Z,14.00
2023-03-10T11:50:02.439Z,14.00
2023-03-10T11:52:33.163Z,13.90
2023-03-10T11:55:06.697Z,13.80
2023-03-10T11:57:40.735Z,13.80
2023-03-10T12:00:19.880Z,13.80
2023-03-10T12:03:04.991Z,13.80
2023-03-10T12:05:43.606Z,13.80
2023-03-10T12:08:13.554Z,14.00
2023-03-10T12:10:43.215Z,14.10
2023-03-10T12:13:22.553Z,14.20
2023-03-10T12:15:55.622Z,14.20
2023-03-10T12:18:26.686Z,14.10
2023-03-10T12:21:24.202Z,14.10
2023-03-10T12:23:53.785Z,14.00
2023-03-10T12:27:03.368Z,13.80
2023-03-10T12:29:35.856Z,13.70
2023-03-10T12:32:03.935Z,13.60
2023-03-10T12:34:32.753Z,13.60
2023-03-10T12:37:10.181Z,13.40
2023-03-10T12:39:40.902Z,13.40
2023-03-10T12:42:30.774Z,13.40
2023-03-10T12:45:17.048Z,13.30
2023-03-10T12:47:53.892Z,13.40
2023-03-10T12:50:32.466Z,13.40
2023-03-10T12:53:08.560Z,13.50
2023-03-10T12:55:36.555Z,13.40
2023-03-10T12:58:11.241Z,13.30
2023-03-10T13:00:48.767Z,13.30
2023-03-10T13:03:27.348Z,13.20
2023-03-10T13:06:05.029Z,13.10
2023-03-10T13:08:43.133Z,13.10
2023-03-10T13:11:29.971Z,13.00
2023-03-10T13:14:00.652Z,13.00
2023-03-10T13:16:28.655Z,13.00
2023-03-10T13:18:56.609Z,13.00
2023-03-10T13:21:27.575Z,13.00
2023-03-10T13:23:57.550Z,12.90
2023-03-10T13:26:26.922Z,12.90
2023-03-10T13:28:58.117Z,12.80
2023-03-10T13:31:28.361Z,12.80
2023-03-10T13:33:56.984Z,12.60
2023-03-10T13:36:32.172Z,12.60
2023-03-10T13:39:04.539Z,12.60
2023-03-10T13:41:37.558Z,12.60
2023-03-10T13:44:05.773Z,12.60
2023-03-10T13:46:34.985Z,12.60
2023-03-10T13:49:06.474Z,12.50
2023-03-10T13:51:36.625Z,12.50
2023-03-10T13:54:21.338Z,12.50
2023-03-10T13:56:51.872Z,12.50
2023-03-10T13:59:24.470Z,12.40
2023-03-10T14:01:55.683Z,12.40
2023-03-10T14:04:43.095Z,12.30
2023-03-10T14:07:13.763Z,12.20
2023-03-10T14:09:43.111Z,12.10
2023-03-10T14:12:12.294Z,12.00
2023-03-10T14:14:41.680Z,11.90
2023-03-10T14:17:29.573Z,11.90
2023-03-10T14:19:57.584Z,11.90
2023-03-10T14:22:37.747Z,11.90
2023-03-10T14:25:13.712Z,11.90
2023-03-10T14:27:43.428Z,11.80
2023-03-10T14:30:23.915Z,11.90
2023-03-10T14:32:52.382Z,12.00
2023-03-10T14:35:22.476Z,12.00
2023-03-10T14:37:50.676Z,12.00
2023-03-10T14:40:21.263Z,12.00
2023-03-10T14:42:50.972Z,12.00
2023-03-10T14:45:30.498Z,12.10
2023-03-10T14:48:00.741Z,12.10
2023-03-10T14:50:30.663Z,12.00
2023-03-10T14:52:58.893Z,12.00
2023-03-10T14:55:28.718Z,12.00
2023-03-10T14:57:59.628Z,11.90
2023-03-10T15:00:27.874Z,11.90
2023-03-10T15:02:55.892Z,11.90
2023-03-10T15:05:31.864Z,11.90
2023-03-10T15:08:06.417Z,11.80
2023-03-10T15:10:38.486Z,11.70
2023-03-10T15:13:06.735Z,11.60
2023-03-10T15:15:38.855Z,11.50
2023-03-10T15:18:07.478Z,11.50
2023-03-10T15:20:35.411Z,11.50
2023-03-10T15:23:03.406Z,11.40
2023-03-10T15:25:31.711Z,11.40
2023-03-10T15:28:01.054Z,11.30
2023-03-10T15:30:31.658Z,11.30
2023-03-10T15:32:59.728Z,11.30
2023-03-10T15:35:29.078Z,11.20
2023-03-10T15:37:58.059Z,11.10
2023-03-10T15:40:28.595Z,11.00
2023-03-10T15:42:58.156Z,10.90
2023-03-10T15:45:28.724Z,10.90
2023-03-10T15:47:57.129Z,10.80
2023-03-10T15:50:25.644Z,10.80
2023-03-10T15:52:55.692Z,10.80
2023-03-10T15:55:24.573Z,10.80
2023-03-10T15:57:52.592Z,10.80
2023-03-10T16:00:23.148Z,10.70
2023-03-10T16:02:53.075Z,10.70
2023-03-10T16:05:22.775Z,10.70
2023-03-10T16:07:51.283Z,10.70
2023-03-10T16:10:21.688Z,10.70
2023-03-10T16:12:49.592Z,10.70
2023-03-10T16:15:18.502Z,10.80
2023-03-10T16:17:46.650Z,10.80
2023-03-10T16:20:18.994Z,10.70
2023-03-10T16:22:47.217Z,10.80
2023-03-10T16:25:16.547Z,10.70
2023-03-10T16:27:45.413Z,10.70
2023-03-10T16:30:14.699Z,10.60
2023-03-10T16:32:45.370Z,10.60
2023-03-10T16:35:15.488Z,10.60
2023-03-10T16:37:43.608Z,10.60
2023-03-10T16:40:12.683Z,10.60
2023-03-10T16:42:45.373Z,10.60
2023-03-10T16:45:13.620Z,10.60
2023-03-10T16:47:43.912Z,10.50
2023-03-10T16:50:14.114Z,10.50
2023-03-10T16:52:44.072Z,10.50
2023-03-10T16:55:17.201Z,10.50
2023-03-10T16:57:46.293Z,10.40
2023-03-10T17:00:15.405Z,10.30
2023-03-10T17:02:43.369Z,10.20
2023-03-10T17:05:12.692Z,10.10
2023-03-10T17:07:55.077Z,10.10
2023-03-10T17:10:23.705Z,10.00
2023-03-10T17:12:51.650Z,9.90
2023-03-10T17:15:19.985Z,9.90
2023-03-10T17:17:47.993Z,9.80
2023-03-10T17:20:18.341Z,9.80
2023-03-10T17:22:47.650Z,9.70
2023-03-10T17:25:15.744Z,9.60
2023-03-10T17:27:43.840Z,9.60
2023-03-10T17:30:13.898Z,9.60
2023-03-10T17:32:41.873Z,9.60
2023-03-10T17:35:10.651Z,9.60
2023-03-10T17:37:38.597Z,9.50
2023-03-10T17:40:10.076Z,9.50
2023-03-10T17:42:38.019Z,9.40
2023-03-10T17:45:07.026Z,9.40
2023-03-10T17:47:35.216Z,9.40
2023-03-10T17:50:03.100Z,9.30
2023-03-10T17:52:31.102Z,9.30
2023-03-10T17:54:59.981Z,9.30
2023-03-10T17:57:29.624Z,9.30
2023-03-10T17:59:57.547Z,9.30
2023-03-10T18:02:25.664Z,9.30
2023-03-10T18:04:53.587Z,9.30
2023-03-10T18:07:21.520Z,9.30
2023-03-10T18:09:49.483Z,9.30
2023-03-10T18:12:17.589Z,9.20
2023-03-10T18:14:48.549Z,9.30
2023-03-10T18:17:16.762Z,9.30
2023-03-10T18:19:44.719Z,9.30
2023-03-10T18:22:13.616Z,9.30
2023-03-10T18:24:41.504Z,9.40
2023-03-10T18:27:09.464Z,9.40
2023-03-10T18:29:37.775Z,9.30
2023-03-10T18:32:07.269Z,9.30
2023-03-10T18:34:35.277Z,9.30
2023-03-10T18:37:03.154Z,9.30
2023-03-10T18:39:31.128Z,9.30
2023-03-10T18:41:59.334Z,9.30
2023-03-10T18:44:30.361Z,9.30
2023-03-10T18:46:58.283Z,9.30
2023-03-10T18:49:27.562Z,9.30
2023-03-10T18:51:55.441Z,9.20
2023-03-10T18:54:23.339Z,9.20
2023-03-10T18:56:51.255Z,9.20
2023-03-10T18:59:19.895Z,9.20
2023-03-10T19:01:47.993Z,9.20
2023-03-10T19:04:15.954Z,9.20
2023-03-10T19:06:45.378Z,9.20
2023-03-10T19:09:15.423Z,9.10
2023-03-10T19:11:43.370Z,9.00
2023-03-10T19:14:11.402Z,8.90
2023-03-10T19:16:40.646Z,8.80
2023-03-10T19:19:09.692Z,8.80
2023-03-10T19:21:38.368Z,8.70
2023-03-10T19:24:08.641Z,8.60
2023-03-10T19:26:36.814Z,8.60
2023-03-10T19:29:05.042Z,8.50
2023-03-10T19:31:33.412Z,8.50
2023-03-10T19:34:01.659Z,8.40
2023-03-10T19:36:29.816Z,8.40
2023-03-10T19:38:57.803Z,8.40
2023-03-10T19:41:27.151Z,8.40
2023-03-10T19:43:55.065Z,8.40
2023-03-10T19:46:23.066Z,8.40
2023-03-10T19:48:50.933Z,8.40
2023-03-10T19:51:22.126Z,8.50
2023-03-10T19:53:51.433Z,8.40
2023-03-10T19:56:20.248Z,8.40
2023-03-10T19:58:50.581Z,8.40
2023-03-10T20:01:23.116Z,8.40
2023-03-10T20:03:52.211Z,8.40
2023-03-10T20:06:21.563Z,8.40
2023-03-10T20:08:49.580Z,8.40
2023-03-10T20:11:19.574Z,8.40
2023-03-10T20:13:48.972Z,8.30
2023-03-10T20:16:17.756Z,8.30
2023-03-10T20:18:45.862Z,8.20
2023-03-10T20:21:14.012Z,8.20
2023-03-10T20:23:42.355Z,8.10
2023-03-10T20:26:11.341Z,8.10
2023-03-10T20:28:39.855Z,8.10
2023-03-10T20:31:09.680Z,8.00
2023-03-10T20:33:37.831Z,7.90
2023-03-10T20:36:08.513Z,7.90
2023-03-10T20:38:36.569Z,7.70
2023-03-10T20:41:04.721Z,7.70
2023-03-10T20:43:32.632Z,7.70
2023-03-10T20:46:00.556Z,7.60
2023-03-10T20:48:29.837Z,7.60
2023-03-10T20:50:58.534Z,7.50
2023-03-10T20:53:26.699Z,7.50
2023-03-10T20:55:54.684Z,7.40
2023-03-10T20:58:23.364Z,7.30
2023-03-10T21:00:51.391Z,7.30
2023-03-10T21:03:21.282Z,7.40
2023-03-10T21:05:50.650Z,7.40
2023-03-10T21:08:18.525Z,7.40
2023-03-10T21:10:49.270Z,7.30
2023-03-10T21:13:17.367Z,7.30
2023-03-10T21:15:45.327Z,7.20
2023-03-10T21:18:13.240Z,7.20
2023-03-10T21:20:42.167Z,7.20
2023-03-10T21:23:11.690Z,7.10
2023-03-10T21:25:41.961Z,7.20
2023-03-10T21:28:10.548Z,7.20
2023-03-10T21:30:38.846Z,7.10
2023-03-10T21:33:06.792Z,7.10
2023-03-10T21:35:38.508Z,7.10
2023-03-10T21:38:06.626Z,7.10
2023-03-10T21:40:36.012Z,7.00
2023-03-10T21:43:04.108Z,7.00
2023-03-10T21:45:34.132Z,6.90
2023-03-10T21:48:03.090Z,6.90
2023-03-10T21:50:31.348Z,6.90
2023-03-10T21:52:59.346Z,6.90
2023-03-10T21:55:28.643Z,6.90
2023-03-10T21:57:57.939Z,6.90
2023-03-10T22:00:26.127Z,6.80
2023-03-10T22:02:54.415Z,6.70
2023-03-10T22:05:22.670Z,6.70
2023-03-10T22:07:51.145Z,6.70
2023-03-10T22:10:19.536Z,6.70
2023-03-10T22:12:48.000Z,6.70
2023-03-10T22:15:20.269Z,6.60
2023-03-10T22:17:48.632Z,6.70
2023-03-10T22:20:18.493Z,6.80
2023-03-10T22:22:46.583Z,6.80
2023-03-10T22:25:15.648Z,6.70
2023-03-10T22:27:43.874Z,6.70
2023-03-10T22:30:14.023Z,6.60
2023-03-10T22:32:43.723Z,6.60
2023-03-10T22:35:12.076Z,6.60
2023-03-10T22:37:41.028Z,6.60
2023-03-10T22:40:11.188Z,6.60
2023-03-10T22:42:40.467Z,6.60
2023-03-10T22:45:15.454Z,6.50
2023-03-10T22:47:44.899Z,6.50
2023-03-10T22:50:14.902Z,6.50
2023-03-10T22:52:43.091Z,6.60
2023-03-10T22:55:14.352Z,6.50
2023-03-10T22:57:42.333Z,6.50
2023-03-10T23:00:15.015Z,6.50
2023-03-10T23:02:44.297Z,6.40
2023-03-10T23:05:12.644Z,6.40
2023-03-10T23:07:41.538Z,6.40
2023-03-10T23:10:11.559Z,6.40
2023-03-10T23:12:40.565Z,6.40
2023-03-10T23:15:15.345Z,6.40
2023-03-10T23:17:51.840Z,6.40
2023-03-10T23:20:20.015Z,6.40
2023-03-10T23:22:48.251Z,6.50
2023-03-10T23:25:19.044Z,6.40
2023-03-10T23:27:47.110Z,6.40
2023-03-10T23:30:16.068Z,6.40
2023-03-10T23:32:45.331Z,6.30
2023-03-10T23:35:16.871Z,6.40
2023-03-10T23:37:44.964Z,6.30
2023-03-10T23:40:15.866Z,6.30
2023-03-10T23:42:44.823Z,6.30
2023-03-10T23:45:15.563Z,6.30
2023-03-10T23:47:43.953Z,6.30
2023-03-10T23:50:18.765Z,6.30
2023-03-10T23:52:46.756Z,6.30
2023-03-10T23:55:16.544Z,6.30
2023-03-10T23:57:44.479Z,6.30
